Time;durP1;ratioP1;P1;durP2;ratioP2;P2;SDS_P1;SDS_P2;PMS_P1;PMS_P2;Temp;Humidity;BMP_temperature;BMP_pressure;BME280_temperature;BME280_humidity;BME280_pressure;Samples;Min_cycle;Max_cycle;Signal;HPM_P1;HPM_P2
2023/05/15 00:00:33;;;;;;;17.08;13.80;;;;;;;;;;5059456;28;20125;-73
2023/05/15 00:02:59;;;;;;;17.40;15.50;;;;;;;;;;5060090;28;20111;-72
2023/05/15 00:05:25;;;;;;;19.70;15.55;;;;;;;;;;5064095;28;20152;-72
2023/05/15 00:07:51;;;;;;;18.75;15.85;;;;;;;;;;5064459;28;20044;-73
2023/05/15 00:10:17;;;;;;;19.08;16.30;;;;;;;;;;5057828;28;20135;-73
2023/05/15 00:12:43;;;;;;;18.67;15.85;;;;;;;;;;5060625;28;20076;-73
2023/05/15 00:15:10;;;;;;;20.83;16.88;;;;;;;;;;5059115;28;20511;-73
2023/05/15 00:17:35;;;;;;;21.02;16.55;;;;;;;;;;5056560;28;20051;-73
2023/05/15 00:20:03;;;;;;;20.45;16.52;;;;;;;;;;5061100;28;20033;-72
2023/05/15 00:22:29;;;;;;;20.35;16.63;;;;;;;;;;5063971;28;20061;-73
2023/05/15 00:24:55;;;;;;;20.80;16.58;;;;;;;;;;5061170;28;20543;-72
2023/05/15 00:27:21;;;;;;;17.25;13.18;;;;;;;;;;5057620;28;20044;-73
2023/05/15 00:29:47;;;;;;;14.20;11.68;;;;;;;;;;5058245;28;20048;-72
2023/05/15 00:32:13;;;;;;;14.63;11.65;;;;;;;;;;5056330;28;20056;-73
2023/05/15 00:34:39;;;;;;;14.98;10.63;;;;;;;;;;5053714;28;20049;-73
2023/05/15 00:37:05;;;;;;;12.07;10.20;;;;;;;;;;5056101;28;20048;-72
2023/05/15 00:39:31;;;;;;;12.95;9.63;;;;;;;;;;5058582;28;20523;-73
2023/05/15 00:41:57;;;;;;;11.77;9.73;;;;;;;;;;5055477;28;20040;-73
2023/05/15 00:44:25;;;;;;;13.13;8.98;;;;;;;;;;5057659;28;20036;-73
2023/05/15 00:46:51;;;;;;;11.75;8.93;;;;;;;;;;5059226;28;20041;-73
2023/05/15 00:49:18;;;;;;;12.00;9.15;;;;;;;;;;5054858;28;20052;-73
2023/05/15 00:51:44;;;;;;;13.85;9.48;;;;;;;;;;5064128;28;20190;-73
2023/05/15 00:54:10;;;;;;;11.40;8.55;;;;;;;;;;5061700;28;20136;-73
2023/05/15 00:56:36;;;;;;;9.80;8.73;;;;;;;;;;5064005;28;20041;-73
2023/05/15 00:59:03;;;;;;;11.38;8.98;;;;;;;;;;5063653;28;20083;-73
2023/05/15 01:01:33;;;;;;;9.98;8.23;;;;;;;;;;5057018;28;20048;-73
2023/05/15 01:03:59;;;;;;;10.38;8.60;;;;;;;;;;5071247;28;20055;-72
2023/05/15 01:06:25;;;;;;;10.52;8.07;;;;;;;;;;5056309;28;20045;-73
2023/05/15 01:08:52;;;;;;;10.18;8.15;;;;;;;;;;5061898;28;20056;-73
2023/05/15 01:11:19;;;;;;;9.80;7.47;;;;;;;;;;5059630;28;20052;-73
2023/05/15 01:13:45;;;;;;;10.85;7.65;;;;;;;;;;5069570;28;20086;-73
2023/05/15 01:16:11;;;;;;;8.50;7.60;;;;;;;;;;5064007;28;20040;-73
2023/05/15 01:18:37;;;;;;;8.88;7.80;;;;;;;;;;5064439;28;20105;-73
2023/05/15 01:21:10;;;;;;;13.60;8.68;;;;;;;;;;5066992;28;20108;-73
2023/05/15 01:23:52;;;;;;;8.73;7.80;;;;;;;;;;5062284;28;20504;-73
2023/05/15 01:26:36;;;;;;;10.05;8.57;;;;;;;;;;5064612;28;20091;-73
2023/05/15 01:29:14;;;;;;;10.07;8.02;;;;;;;;;;5057922;28;20099;-72
2023/05/15 01:31:41;;;;;;;11.25;7.60;;;;;;;;;;5063334;28;20063;-73
2023/05/15 01:34:09;;;;;;;9.18;7.88;;;;;;;;;;5069517;28;20079;-73
2023/05/15 01:36:55;;;;;;;8.77;7.88;;;;;;;;;;5060446;28;20040;-72
2023/05/15 01:39:25;;;;;;;9.98;8.15;;;;;;;;;;5065323;28;20088;-73
2023/05/15 01:42:00;;;;;;;9.93;8.70;;;;;;;;;;5056165;28;20064;-73
2023/05/15 01:44:35;;;;;;;9.45;8.35;;;;;;;;;;5083020;28;20551;-73
2023/05/15 01:47:03;;;;;;;10.65;8.20;;;;;;;;;;5060841;28;20044;-72
2023/05/15 01:49:30;;;;;;;10.73;7.63;;;;;;;;;;5060308;28;20118;-72
2023/05/15 01:52:01;;;;;;;11.77;8.15;;;;;;;;;;5061713;28;20029;-72
2023/05/15 01:54:29;;;;;;;9.40;7.75;;;;;;;;;;5054596;28;20109;-73
2023/05/15 01:56:55;;;;;;;9.55;8.50;;;;;;;;;;5059780;28;20064;-72
2023/05/15 01:59:22;;;;;;;9.27;8.02;;;;;;;;;;5053963;28;20045;-72
2023/05/15 02:01:49;;;;;;;9.30;7.70;;;;;;;;;;5057285;28;20048;-72
2023/05/15 02:04:17;;;;;;;9.27;8.00;;;;;;;;;;5057049;28;20107;-72
2023/05/15 02:06:43;;;;;;;9.43;7.65;;;;;;;;;;5060358;28;20051;-72
2023/05/15 02:09:09;;;;;;;12.13;8.93;;;;;;;;;;5056550;28;20037;-72
2023/05/15 02:11:36;;;;;;;9.65;8.27;;;;;;;;;;5054726;28;20516;-72
2023/05/15 02:14:04;;;;;;;9.00;7.80;;;;;;;;;;5062503;28;20047;-72
2023/05/15 02:16:30;;;;;;;9.65;8.52;;;;;;;;;;5060834;28;20044;-72
2023/05/15 02:18:56;;;;;;;9.73;8.13;;;;;;;;;;5063542;28;20058;-72
2023/05/15 02:21:22;;;;;;;9.52;8.52;;;;;;;;;;5061996;28;20045;-73
2023/05/15 02:23:48;;;;;;;10.15;9.02;;;;;;;;;;5049314;28;20040;-73
2023/05/15 02:26:17;;;;;;;11.75;8.55;;;;;;;;;;5059183;28;20052;-72
2023/05/15 02:29:03;;;;;;;10.48;8.05;;;;;;;;;;5057428;28;20052;-73
2023/05/15 02:31:37;;;;;;;9.30;8.35;;;;;;;;;;5062949;28;20098;-73
2023/05/15 02:34:03;;;;;;;10.10;7.53;;;;;;;;;;5056135;28;20037;-72
2023/05/15 02:36:32;;;;;;;10.00;7.97;;;;;;;;;;5061272;28;20049;-72
2023/05/15 02:38:58;;;;;;;9.52;8.43;;;;;;;;;;5063956;28;20808;-72
2023/05/15 02:41:24;;;;;;;10.15;8.18;;;;;;;;;;5054890;28;20033;-72
2023/05/15 02:43:51;;;;;;;9.95;8.35;;;;;;;;;;5057914;28;20040;-72
2023/05/15 02:46:21;;;;;;;8.18;7.25;;;;;;;;;;5058500;28;20041;-73
2023/05/15 02:48:47;;;;;;;8.63;7.80;;;;;;;;;;5067757;28;20384;-72
2023/05/15 02:51:13;;;;;;;10.05;8.48;;;;;;;;;;5060964;28;20059;-73
2023/05/15 02:53:40;;;;;;;8.43;7.57;;;;;;;;;;5065851;28;20047;-73
2023/05/15 02:56:06;;;;;;;10.60;7.97;;;;;;;;;;5065649;28;20074;-73
2023/05/15 02:58:33;;;;;;;8.88;7.55;;;;;;;;;;5059508;28;20140;-73
2023/05/15 03:00:59;;;;;;;10.30;7.78;;;;;;;;;;5091507;28;20057;-73
2023/05/15 03:03:25;;;;;;;8.77;7.88;;;;;;;;;;5058580;28;20053;-72
2023/05/15 03:05:51;;;;;;;9.95;7.57;;;;;;;;;;5066129;28;20055;-72
2023/05/15 03:08:18;;;;;;;8.98;7.25;;;;;;;;;;5057212;28;20040;-72
2023/05/15 03:10:44;;;;;;;8.73;7.25;;;;;;;;;;5056918;28;20056;-72
2023/05/15 03:13:10;;;;;;;10.18;8.10;;;;;;;;;;5066696;28;20076;-73
2023/05/15 03:15:36;;;;;;;9.25;7.72;;;;;;;;;;5060690;28;20041;-73
2023/05/15 03:18:02;;;;;;;10.48;8.40;;;;;;;;;;5067593;28;20041;-73
2023/05/15 03:20:28;;;;;;;10.90;8.18;;;;;;;;;;5058600;28;20044;-73
2023/05/15 03:22:54;;;;;;;9.68;8.30;;;;;;;;;;5060129;28;20047;-73
2023/05/15 03:25:21;;;;;;;8.93;8.02;;;;;;;;;;5056777;28;20116;-73
2023/05/15 03:27:47;;;;;;;9.82;8.02;;;;;;;;;;5064228;28;20040;-73
2023/05/15 03:30:13;;;;;;;8.50;7.20;;;;;;;;;;5063382;28;20044;-73
2023/05/15 03:32:39;;;;;;;11.10;9.27;;;;;;;;;;5053351;28;20075;-73
2023/05/15 03:35:05;;;;;;;11.02;9.60;;;;;;;;;;5060848;28;20130;-73
2023/05/15 03:37:32;;;;;;;10.57;9.35;;;;;;;;;;5053108;28;20042;-72
2023/05/15 03:39:58;;;;;;;10.15;9.13;;;;;;;;;;5057673;28;20456;-73
2023/05/15 03:42:24;;;;;;;11.18;9.98;;;;;;;;;;5056706;28;20058;-73
2023/05/15 03:44:50;;;;;;;11.10;9.75;;;;;;;;;;5061179;28;20484;-73
2023/05/15 03:47:17;;;;;;;11.93;8.63;;;;;;;;;;5052685;28;20066;-73
2023/05/15 03:49:43;;;;;;;11.48;8.43;;;;;;;;;;5059224;28;20043;-73
2023/05/15 03:52:09;;;;;;;10.73;8.98;;;;;;;;;;5062931;28;20098;-73
2023/05/15 03:54:35;;;;;;;9.20;8.20;;;;;;;;;;5060044;28;20048;-73
2023/05/15 03:57:03;;;;;;;11.40;8.07;;;;;;;;;;5054427;28;20057;-73
2023/05/15 03:59:29;;;;;;;8.73;7.80;;;;;;;;;;5058164;28;20467;-73
2023/05/15 04:01:55;;;;;;;10.23;8.13;;;;;;;;;;5057387;28;20040;-73
2023/05/15 04:04:21;;;;;;;10.00;8.73;;;;;;;;;;5063057;28;20048;-73
2023/05/15 04:06:47;;;;;;;9.57;7.53;;;;;;;;;;5053951;28;20052;-73
2023/05/15 04:09:13;;;;;;;9.65;8.68;;;;;;;;;;5056158;28;20044;-73
2023/05/15 04:11:39;;;;;;;8.88;7.97;;;;;;;;;;5058348;28;20053;-73
2023/05/15 04:14:05;;;;;;;9.88;8.18;;;;;;;;;;5063556;28;20052;-73
2023/05/15 04:16:31;;;;;;;9.63;8.43;;;;;;;;;;5063302;28;20581;-73
2023/05/15 04:18:57;;;;;;;10.13;8.52;;;;;;;;;;5058415;28;20037;-73
2023/05/15 04:21:23;;;;;;;9.15;8.23;;;;;;;;;;5067813;28;20041;-73
2023/05/15 04:23:49;;;;;;;9.30;8.45;;;;;;;;;;5061045;28;20052;-73
2023/05/15 04:26:15;;;;;;;10.30;8.52;;;;;;;;;;5065943;28;20079;-73
2023/05/15 04:28:41;;;;;;;10.77;8.73;;;;;;;;;;5067884;28;20658;-73
2023/05/15 04:31:07;;;;;;;12.77;7.82;;;;;;;;;;5064749;28;20041;-73
2023/05/15 04:33:33;;;;;;;9.85;7.90;;;;;;;;;;5066829;28;20110;-73
2023/05/15 04:35:59;;;;;;;10.23;8.57;;;;;;;;;;5064215;28;20372;-73
2023/05/15 04:38:25;;;;;;;10.05;8.40;;;;;;;;;;5060193;28;20468;-73
2023/05/15 04:40:52;;;;;;;11.40;8.90;;;;;;;;;;5064918;28;20052;-73
2023/05/15 04:43:18;;;;;;;11.43;8.02;;;;;;;;;;5058288;28;20059;-73
2023/05/15 04:45:44;;;;;;;10.00;7.50;;;;;;;;;;5065985;28;20041;-72
2023/05/15 04:48:10;;;;;;;11.98;6.85;;;;;;;;;;5066924;28;20484;-73
2023/05/15 04:50:36;;;;;;;9.75;7.88;;;;;;;;;;5094999;28;20041;-73
2023/05/15 04:53:02;;;;;;;10.73;6.57;;;;;;;;;;5060950;28;20115;-72
2023/05/15 04:55:31;;;;;;;9.38;7.47;;;;;;;;;;5062479;28;20440;-72
2023/05/15 04:57:57;;;;;;;9.43;7.63;;;;;;;;;;5061822;28;20446;-72
2023/05/15 05:00:23;;;;;;;9.68;7.80;;;;;;;;;;5065223;28;20053;-72
2023/05/15 05:02:49;;;;;;;8.63;7.40;;;;;;;;;;5066463;28;20400;-72
2023/05/15 05:05:15;;;;;;;9.07;7.13;;;;;;;;;;5057259;28;20056;-72
2023/05/15 05:07:43;;;;;;;8.93;8.02;;;;;;;;;;5067790;28;20064;-72
2023/05/15 05:10:09;;;;;;;10.23;8.60;;;;;;;;;;5061410;28;20057;-73
2023/05/15 05:12:35;;;;;;;9.30;7.93;;;;;;;;;;5062478;28;20045;-73
2023/05/15 05:15:01;;;;;;;9.35;8.10;;;;;;;;;;5066092;28;20052;-72
2023/05/15 05:17:30;;;;;;;9.27;8.02;;;;;;;;;;5059620;28;20057;-72
2023/05/15 05:19:56;;;;;;;10.10;7.65;;;;;;;;;;5070046;28;20051;-72
2023/05/15 05:22:22;;;;;;;8.88;7.93;;;;;;;;;;5057435;28;20044;-72
2023/05/15 05:24:48;;;;;;;8.93;7.97;;;;;;;;;;5069351;28;20064;-72
2023/05/15 05:27:14;;;;;;;8.65;7.85;;;;;;;;;;5061006;28;20118;-73
2023/05/15 05:29:40;;;;;;;9.73;7.38;;;;;;;;;;5064807;28;20044;-72
2023/05/15 05:32:07;;;;;;;10.82;9.23;;;;;;;;;;5052472;28;20033;-72
2023/05/15 05:34:33;;;;;;;12.20;8.98;;;;;;;;;;5060903;28;20052;-73
2023/05/15 05:36:59;;;;;;;10.07;8.70;;;;;;;;;;5064089;28;20037;-72
2023/05/15 05:39:25;;;;;;;8.82;7.97;;;;;;;;;;5058963;28;20051;-72
2023/05/15 05:41:51;;;;;;;10.02;8.73;;;;;;;;;;5064084;28;20037;-73
2023/05/15 05:44:17;;;;;;;10.27;7.60;;;;;;;;;;5059162;28;20396;-73
2023/05/15 05:46:47;;;;;;;8.65;7.43;;;;;;;;;;5068051;28;20044;-72
2023/05/15 05:49:13;;;;;;;13.07;8.18;;;;;;;;;;5067268;28;20033;-72
2023/05/15 05:51:39;;;;;;;10.95;8.55;;;;;;;;;;5059439;28;20138;-72
2023/05/15 05:54:05;;;;;;;9.20;8.00;;;;;;;;;;5070353;28;20131;-73
2023/05/15 05:56:31;;;;;;;8.98;7.88;;;;;;;;;;5054557;28;20102;-72
2023/05/15 05:58:58;;;;;;;11.57;8.25;;;;;;;;;;5060790;28;20061;-73
2023/05/15 06:01:26;;;;;;;9.25;7.60;;;;;;;;;;5060991;28;20049;-73
2023/05/15 06:03:52;;;;;;;10.15;8.15;;;;;;;;;;5052769;28;20047;-72
2023/05/15 06:06:18;;;;;;;10.65;8.55;;;;;;;;;;5062755;28;20040;-73
2023/05/15 06:08:44;;;;;;;10.88;8.32;;;;;;;;;;5051521;28;20551;-73
2023/05/15 06:11:10;;;;;;;11.57;9.77;;;;;;;;;;5066017;28;20044;-73
2023/05/15 06:13:36;;;;;;;9.90;8.90;;;;;;;;;;5065256;28;20064;-73
2023/05/15 06:16:02;;;;;;;11.65;9.13;;;;;;;;;;5063601;28;20083;-73
2023/05/15 06:18:28;;;;;;;10.30;7.95;;;;;;;;;;5066610;28;20917;-73
2023/05/15 06:20:55;;;;;;;10.85;8.25;;;;;;;;;;5058543;28;20074;-72
2023/05/15 06:23:21;;;;;;;8.13;7.30;;;;;;;;;;5065499;28;20044;-73
2023/05/15 06:25:47;;;;;;;8.90;8.05;;;;;;;;;;5056093;28;20075;-73
2023/05/15 06:28:13;;;;;;;9.20;8.25;;;;;;;;;;5062472;28;20054;-73
2023/05/15 06:30:39;;;;;;;8.20;7.30;;;;;;;;;;5056175;28;20041;-73
2023/05/15 06:33:05;;;;;;;10.93;7.82;;;;;;;;;;5052261;28;20090;-73
2023/05/15 06:35:31;;;;;;;10.52;7.90;;;;;;;;;;5052652;28;20041;-73
2023/05/15 06:37:57;;;;;;;8.73;7.25;;;;;;;;;;5066673;28;20049;-73
2023/05/15 06:40:23;;;;;;;9.20;8.20;;;;;;;;;;5060035;28;20048;-73
2023/05/15 06:42:49;;;;;;;9.18;8.07;;;;;;;;;;5064720;28;20037;-73
2023/05/15 06:45:15;;;;;;;12.40;8.18;;;;;;;;;;5067997;28;20051;-73
2023/05/15 06:47:41;;;;;;;8.80;7.60;;;;;;;;;;5068962;28;20051;-73
2023/05/15 06:50:08;;;;;;;9.48;8.18;;;;;;;;;;5059963;28;20048;-73
2023/05/15 06:52:34;;;;;;;9.02;7.72;;;;;;;;;;5061436;28;20056;-72
2023/05/15 06:55:00;;;;;;;11.68;9.73;;;;;;;;;;5057029;28;20044;-72
2023/05/15 06:57:26;;;;;;;12.20;7.82;;;;;;;;;;5064914;28;20598;-72
2023/05/15 06:59:52;;;;;;;10.05;7.63;;;;;;;;;;5072000;28;20084;-72
2023/05/15 07:02:18;;;;;;;7.68;6.97;;;;;;;;;;5065142;28;20127;-72
2023/05/15 07:04:44;;;;;;;10.00;7.05;;;;;;;;;;5060922;28;20127;-72
2023/05/15 07:07:10;;;;;;;9.73;7.25;;;;;;;;;;5059204;28;20574;-72
2023/05/15 07:09:36;;;;;;;8.52;6.85;;;;;;;;;;5067650;28;20130;-72
2023/05/15 07:12:02;;;;;;;8.80;7.20;;;;;;;;;;5067042;28;20131;-72
2023/05/15 07:14:28;;;;;;;8.25;7.25;;;;;;;;;;5064714;28;20052;-72
2023/05/15 07:16:54;;;;;;;8.82;7.90;;;;;;;;;;5068690;28;20158;-73
2023/05/15 07:19:21;;;;;;;9.30;8.02;;;;;;;;;;5064785;28;20044;-73
2023/05/15 07:21:47;;;;;;;8.38;7.60;;;;;;;;;;5093260;28;20063;-72
2023/05/15 07:24:13;;;;;;;8.13;7.10;;;;;;;;;;5064235;28;20500;-73
2023/05/15 07:26:39;;;;;;;9.82;7.68;;;;;;;;;;5065422;28;20044;-73
2023/05/15 07:29:05;;;;;;;9.05;8.15;;;;;;;;;;5064531;28;20047;-73
2023/05/15 07:31:32;;;;;;;10.90;7.05;;;;;;;;;;5060225;28;20127;-74
2023/05/15 07:33:58;;;;;;;7.55;6.85;;;;;;;;;;5066827;28;20048;-74
2023/05/15 07:36:24;;;;;;;8.32;7.45;;;;;;;;;;5059647;28;20051;-74
2023/05/15 07:38:50;;;;;;;9.93;8.93;;;;;;;;;;5091899;28;20075;-74
2023/05/15 07:41:16;;;;;;;8.45;7.57;;;;;;;;;;5068758;28;20071;-74
2023/05/15 07:43:42;;;;;;;12.02;8.45;;;;;;;;;;5068535;28;20119;-73
2023/05/15 07:46:08;;;;;;;11.43;8.60;;;;;;;;;;5061655;28;20048;-73
2023/05/15 07:48:34;;;;;;;9.07;8.13;;;;;;;;;;5066436;28;20041;-74
2023/05/15 07:51:00;;;;;;;8.57;7.68;;;;;;;;;;5055801;28;20091;-73
2023/05/15 07:53:26;;;;;;;13.70;9.15;;;;;;;;;;5069479;28;20109;-72
2023/05/15 07:55:52;;;;;;;9.32;7.90;;;;;;;;;;5069726;28;20044;-73
2023/05/15 07:58:18;;;;;;;8.13;7.13;;;;;;;;;;5058947;28;20109;-74
2023/05/15 08:00:44;;;;;;;11.85;8.48;;;;;;;;;;5056730;28;20049;-74
2023/05/15 08:03:11;;;;;;;10.30;8.50;;;;;;;;;;5065055;28;20404;-74
2023/05/15 08:05:37;;;;;;;8.20;7.40;;;;;;;;;;5060172;28;20041;-74
2023/05/15 08:08:03;;;;;;;9.52;8.30;;;;;;;;;;5062396;28;20044;-73
2023/05/15 08:10:29;;;;;;;10.50;8.35;;;;;;;;;;5093676;28;20052;-73
2023/05/15 08:12:55;;;;;;;10.43;7.97;;;;;;;;;;5065327;28;20044;-73
2023/05/15 08:15:22;;;;;;;9.52;8.20;;;;;;;;;;5064075;28;20037;-73
2023/05/15 08:17:48;;;;;;;9.50;8.43;;;;;;;;;;5074069;28;20094;-73
2023/05/15 08:20:14;;;;;;;9.52;8.65;;;;;;;;;;5065413;28;20135;-74
2023/05/15 08:22:40;;;;;;;10.40;8.60;;;;;;;;;;5068441;28;20043;-73
2023/05/15 08:25:07;;;;;;;11.27;7.97;;;;;;;;;;5066066;28;20036;-73
2023/05/15 08:27:33;;;;;;;11.43;9.13;;;;;;;;;;5066980;28;20044;-73
2023/05/15 08:29:59;;;;;;;13.50;9.75;;;;;;;;;;5061521;28;20044;-73
2023/05/15 08:32:26;;;;;;;10.43;8.00;;;;;;;;;;5065572;28;21029;-73
2023/05/15 08:34:52;;;;;;;10.88;8.10;;;;;;;;;;5066823;28;20061;-73
2023/05/15 08:37:18;;;;;;;10.30;8.05;;;;;;;;;;5067997;28;20045;-73
2023/05/15 08:39:44;;;;;;;9.27;7.50;;;;;;;;;;5063301;28;20510;-73
2023/05/15 08:42:20;;;;;;;8.88;8.00;;;;;;;;;;5066684;28;20060;-74
2023/05/15 08:44:47;;;;;;;11.00;8.20;;;;;;;;;;5060927;28;20406;-73
2023/05/15 08:47:16;;;;;;;8.88;7.63;;;;;;;;;;5066010;28;20040;-73
2023/05/15 08:50:05;;;;;;;11.40;8.43;;;;;;;;;;5072091;28;20572;-73
2023/05/15 08:52:35;;;;;;;10.18;8.45;;;;;;;;;;5054737;28;20059;-72
2023/05/15 08:55:01;;;;;;;10.43;8.18;;;;;;;;;;5062935;28;20048;-73
2023/05/15 08:57:28;;;;;;;8.07;7.25;;;;;;;;;;5061972;28;20067;-73
2023/05/15 08:59:54;;;;;;;9.27;8.38;;;;;;;;;;5059571;28;20136;-74
2023/05/15 09:02:20;;;;;;;9.00;8.13;;;;;;;;;;5065638;28;20476;-73
2023/05/15 09:04:46;;;;;;;9.02;7.75;;;;;;;;;;5065248;28;20085;-73
2023/05/15 09:07:14;;;;;;;10.40;9.10;;;;;;;;;;5067359;28;20045;-73
2023/05/15 09:09:42;;;;;;;15.25;8.25;;;;;;;;;;5065742;28;20049;-73
2023/05/15 09:12:10;;;;;;;9.48;8.45;;;;;;;;;;5092237;28;20094;-73
2023/05/15 09:14:36;;;;;;;9.65;8.27;;;;;;;;;;5064245;28;20041;-73
2023/05/15 09:17:02;;;;;;;8.55;7.70;;;;;;;;;;5067061;28;20412;-73
2023/05/15 09:19:28;;;;;;;10.45;9.35;;;;;;;;;;5068512;28;20044;-73
2023/05/15 09:21:54;;;;;;;9.55;8.05;;;;;;;;;;5071344;28;20045;-73
2023/05/15 09:24:25;;;;;;;8.23;7.13;;;;;;;;;;5068266;28;20109;-74
2023/05/15 09:27:02;;;;;;;9.30;8.40;;;;;;;;;;5058897;28;20052;-73
2023/05/15 09:29:29;;;;;;;8.52;7.63;;;;;;;;;;5069914;28;20048;-73
2023/05/15 09:31:55;;;;;;;9.23;7.53;;;;;;;;;;5061416;28;20041;-73
2023/05/15 09:34:28;;;;;;;9.10;7.13;;;;;;;;;;5067507;28;20059;-73
2023/05/15 09:36:55;;;;;;;9.05;8.15;;;;;;;;;;5069950;28;20040;-73
2023/05/15 09:39:24;;;;;;;8.90;8.00;;;;;;;;;;5063274;28;20045;-73
2023/05/15 09:41:50;;;;;;;8.85;7.80;;;;;;;;;;5070678;28;20049;-72
2023/05/15 09:44:19;;;;;;;7.90;7.15;;;;;;;;;;5063261;28;20429;-73
2023/05/15 09:46:46;;;;;;;9.52;8.38;;;;;;;;;;5061231;28;20040;-73
2023/05/15 09:49:12;;;;;;;8.73;7.82;;;;;;;;;;5069701;28;20041;-73
2023/05/15 09:51:39;;;;;;;9.32;8.43;;;;;;;;;;5067613;28;20053;-73
2023/05/15 09:54:05;;;;;;;11.88;8.40;;;;;;;;;;5097044;28;20047;-73
2023/05/15 09:56:32;;;;;;;8.27;7.47;;;;;;;;;;5095977;28;20101;-73
2023/05/15 09:58:58;;;;;;;9.32;8.15;;;;;;;;;;5097642;28;20045;-73
2023/05/15 10:01:26;;;;;;;7.70;6.90;;;;;;;;;;5059077;28;20132;-73
2023/05/15 10:03:59;;;;;;;7.88;7.07;;;;;;;;;;5065579;28;20484;-72
2023/05/15 10:06:25;;;;;;;8.02;6.70;;;;;;;;;;5068008;28;20056;-73
2023/05/15 10:08:54;;;;;;;8.27;7.47;;;;;;;;;;5090600;28;20052;-73
2023/05/15 10:11:21;;;;;;;7.80;7.00;;;;;;;;;;5099213;28;20048;-73
2023/05/15 10:13:47;;;;;;;8.43;7.50;;;;;;;;;;5063248;28;20151;-73
2023/05/15 10:16:13;;;;;;;15.75;7.80;;;;;;;;;;5070596;28;20122;-74
2023/05/15 10:18:44;;;;;;;7.88;7.03;;;;;;;;;;5064363;28;20123;-73
2023/05/15 10:21:11;;;;;;;9.52;7.03;;;;;;;;;;5070338;28;20403;-73
2023/05/15 10:23:40;;;;;;;7.47;6.57;;;;;;;;;;5060238;28;20048;-73
2023/05/15 10:26:10;;;;;;;7.55;6.80;;;;;;;;;;5065329;28;20047;-73
2023/05/15 10:28:37;;;;;;;7.35;6.45;;;;;;;;;;5055991;28;20072;-73
2023/05/15 10:31:04;;;;;;;7.55;6.07;;;;;;;;;;5065405;28;20102;-73
2023/05/15 10:33:31;;;;;;;6.95;5.88;;;;;;;;;;5067358;28;20056;-73
2023/05/15 10:35:58;;;;;;;10.48;5.90;;;;;;;;;;5060243;28;20101;-73
2023/05/15 10:38:25;;;;;;;6.80;6.05;;;;;;;;;;5098647;28;20496;-73
2023/05/15 10:40:52;;;;;;;9.10;6.35;;;;;;;;;;5068851;28;20113;-73
2023/05/15 10:43:19;;;;;;;9.05;5.85;;;;;;;;;;5066752;28;20040;-73
2023/05/15 10:45:46;;;;;;;7.53;5.95;;;;;;;;;;5068569;28;20460;-73
2023/05/15 10:48:13;;;;;;;6.68;5.90;;;;;;;;;;5062076;28;20044;-73
2023/05/15 10:50:39;;;;;;;6.75;5.85;;;;;;;;;;5067224;28;20101;-73
2023/05/15 10:53:05;;;;;;;7.18;5.60;;;;;;;;;;5062905;28;20136;-73
2023/05/15 10:55:31;;;;;;;8.95;5.93;;;;;;;;;;5061037;28;20048;-72
2023/05/15 10:57:58;;;;;;;7.07;5.57;;;;;;;;;;5070171;28;20048;-72
2023/05/15 11:00:30;;;;;;;7.80;6.35;;;;;;;;;;5066804;28;20056;-72
2023/05/15 11:02:57;;;;;;;6.85;6.15;;;;;;;;;;5061589;28;20055;-72
2023/05/15 11:05:23;;;;;;;7.95;6.57;;;;;;;;;;5064641;28;20041;-72
2023/05/15 11:08:08;;;;;;;8.35;6.65;;;;;;;;;;5066806;28;20044;-72
2023/05/15 11:10:34;;;;;;;8.48;6.53;;;;;;;;;;5068577;28;20044;-72
2023/05/15 11:13:01;;;;;;;7.22;6.53;;;;;;;;;;5063415;28;20368;-72
2023/05/15 11:15:40;;;;;;;8.68;6.70;;;;;;;;;;5066289;28;20560;-72
2023/05/15 11:18:06;;;;;;;8.90;6.93;;;;;;;;;;5063612;28;20056;-72
2023/05/15 11:20:42;;;;;;;9.48;6.22;;;;;;;;;;5066403;28;20052;-72
2023/05/15 11:23:09;;;;;;;7.32;6.18;;;;;;;;;;5061637;28;20044;-72
2023/05/15 11:25:36;;;;;;;7.28;6.35;;;;;;;;;;5067246;28;20051;-72
2023/05/15 11:28:02;;;;;;;7.43;6.65;;;;;;;;;;5054460;28;20124;-72
2023/05/15 11:30:36;;;;;;;7.53;6.72;;;;;;;;;;5097240;28;20092;-72
2023/05/15 11:33:10;;;;;;;8.00;6.95;;;;;;;;;;5062924;28;20123;-72
2023/05/15 11:35:44;;;;;;;7.82;6.82;;;;;;;;;;5058903;28;20605;-72
2023/05/15 11:38:10;;;;;;;7.25;6.28;;;;;;;;;;5059275;28;20547;-72
2023/05/15 11:40:52;;;;;;;8.07;6.70;;;;;;;;;;5065872;28;20087;-72
2023/05/15 11:43:21;;;;;;;8.55;7.65;;;;;;;;;;5091026;28;20048;-72
2023/05/15 11:45:52;;;;;;;8.23;7.43;;;;;;;;;;5065613;28;20043;-73
2023/05/15 11:48:18;;;;;;;8.95;7.18;;;;;;;;;;5067450;28;20117;-72
2023/05/15 11:50:44;;;;;;;9.20;6.97;;;;;;;;;;5093999;28;20434;-72
2023/05/15 11:53:11;;;;;;;10.27;7.50;;;;;;;;;;5066223;28;20051;-72
2023/05/15 11:55:39;;;;;;;8.82;7.93;;;;;;;;;;5057962;28;20053;-72
2023/05/15 11:58:05;;;;;;;9.50;8.35;;;;;;;;;;5092656;28;20452;-72
2023/05/15 12:00:31;;;;;;;10.20;7.60;;;;;;;;;;5063206;28;20040;-72
2023/05/15 12:02:57;;;;;;;9.18;7.32;;;;;;;;;;5055748;28;20119;-72
2023/05/15 12:05:23;;;;;;;9.85;8.40;;;;;;;;;;5059343;28;20098;-72
2023/05/15 12:07:50;;;;;;;9.38;8.00;;;;;;;;;;5063358;28;20040;-72
2023/05/15 12:10:16;;;;;;;9.65;8.50;;;;;;;;;;5094248;28;20048;-72
2023/05/15 12:12:45;;;;;;;8.43;7.53;;;;;;;;;;5064323;28;20045;-72
2023/05/15 12:15:12;;;;;;;10.52;9.30;;;;;;;;;;5094337;28;20063;-73
2023/05/15 12:17:39;;;;;;;9.43;8.10;;;;;;;;;;5059925;28;20384;-72
2023/05/15 12:20:10;;;;;;;9.05;7.68;;;;;;;;;;5090734;28;20484;-72
2023/05/15 12:22:41;;;;;;;8.80;7.72;;;;;;;;;;5060632;28;20128;-72
2023/05/15 12:25:07;;;;;;;8.23;7.32;;;;;;;;;;5062207;28;20045;-72
2023/05/15 12:27:34;;;;;;;10.02;7.97;;;;;;;;;;5061998;28;20045;-73
2023/05/15 12:30:01;;;;;;;8.73;7.65;;;;;;;;;;5066121;28;20043;-72
2023/05/15 12:32:27;;;;;;;9.13;7.57;;;;;;;;;;5063121;28;20052;-72
2023/05/15 12:34:53;;;;;;;9.30;7.90;;;;;;;;;;5063239;28;20033;-72
2023/05/15 12:37:20;;;;;;;7.90;6.97;;;;;;;;;;5054906;28;20053;-72
2023/05/15 12:39:56;;;;;;;8.68;7.78;;;;;;;;;;5092412;28;20056;-72
2023/05/15 12:42:22;;;;;;;8.35;7.40;;;;;;;;;;5062800;28;20045;-72
2023/05/15 12:44:52;;;;;;;8.95;8.05;;;;;;;;;;5071861;28;20082;-72
2023/05/15 12:47:22;;;;;;;10.00;8.32;;;;;;;;;;5062797;28;20052;-72
2023/05/15 12:49:48;;;;;;;9.52;7.53;;;;;;;;;;5072532;28;20044;-72
2023/05/15 12:52:15;;;;;;;7.88;7.07;;;;;;;;;;5068035;28;20109;-72
2023/05/15 12:54:43;;;;;;;10.35;7.63;;;;;;;;;;5070803;28;20116;-73
2023/05/15 12:57:09;;;;;;;9.23;7.40;;;;;;;;;;5069189;28;20584;-73
2023/05/15 12:59:35;;;;;;;9.50;8.05;;;;;;;;;;5059179;28;20095;-73
2023/05/15 13:02:01;;;;;;;11.23;7.88;;;;;;;;;;5070637;28;20431;-73
2023/05/15 13:04:28;;;;;;;10.10;8.35;;;;;;;;;;5061814;28;20529;-73
2023/05/15 13:06:54;;;;;;;10.25;8.88;;;;;;;;;;5061370;28;20044;-72
2023/05/15 13:09:21;;;;;;;10.20;9.10;;;;;;;;;;5063261;28;20072;-73
2023/05/15 13:11:47;;;;;;;10.20;9.02;;;;;;;;;;5063622;28;20048;-73
2023/05/15 13:14:16;;;;;;;11.30;8.95;;;;;;;;;;5068667;28;20067;-73
2023/05/15 13:16:42;;;;;;;10.50;9.40;;;;;;;;;;5091108;28;20050;-73
2023/05/15 13:19:09;;;;;;;9.75;8.50;;;;;;;;;;5065983;28;20036;-73
2023/05/15 13:21:35;;;;;;;9.80;8.80;;;;;;;;;;5066858;28;20045;-73
2023/05/15 13:24:01;;;;;;;10.10;8.82;;;;;;;;;;5064741;28;20457;-73
2023/05/15 13:26:27;;;;;;;11.32;10.13;;;;;;;;;;5068787;28;20094;-73
2023/05/15 13:28:53;;;;;;;11.65;8.38;;;;;;;;;;5059865;28;20060;-73
2023/05/15 13:31:19;;;;;;;9.82;8.77;;;;;;;;;;5066938;28;20064;-73
2023/05/15 13:33:45;;;;;;;10.15;9.00;;;;;;;;;;5062683;28;20053;-74
2023/05/15 13:36:11;;;;;;;11.68;9.77;;;;;;;;;;5068166;28;20454;-73
2023/05/15 13:38:37;;;;;;;12.45;10.82;;;;;;;;;;5064982;28;20454;-73
2023/05/15 13:41:03;;;;;;;13.07;10.23;;;;;;;;;;5065473;28;20068;-72
2023/05/15 13:43:30;;;;;;;11.10;9.25;;;;;;;;;;5067014;28;20116;-73
2023/05/15 13:45:56;;;;;;;10.65;9.10;;;;;;;;;;5060531;28;20037;-73
2023/05/15 13:48:22;;;;;;;11.02;9.70;;;;;;;;;;5095942;28;20036;-74
2023/05/15 13:50:48;;;;;;;12.00;10.43;;;;;;;;;;5060640;28;20037;-72
2023/05/15 13:53:15;;;;;;;12.70;10.50;;;;;;;;;;5066434;28;20122;-72
2023/05/15 13:55:44;;;;;;;13.25;11.73;;;;;;;;;;5070449;28;20040;-71
2023/05/15 13:58:11;;;;;;;15.07;11.75;;;;;;;;;;5061533;28;20049;-72
2023/05/15 14:00:38;;;;;;;15.60;12.02;;;;;;;;;;5061980;28;20045;-72
2023/05/15 14:03:04;;;;;;;15.55;12.85;;;;;;;;;;5057943;28;20051;-72
2023/05/15 14:05:30;;;;;;;17.13;13.98;;;;;;;;;;5070113;28;20131;-72
2023/05/15 14:07:56;;;;;;;18.58;13.13;;;;;;;;;;5068974;28;20124;-72
2023/05/15 14:10:23;;;;;;;15.18;12.50;;;;;;;;;;5089699;28;20045;-72
2023/05/15 14:12:49;;;;;;;14.60;12.38;;;;;;;;;;5070350;28;20055;-71
2023/05/15 14:15:15;;;;;;;13.85;11.63;;;;;;;;;;5068942;28;20065;-72
2023/05/15 14:17:41;;;;;;;14.15;11.10;;;;;;;;;;5060722;28;20519;-72
2023/05/15 14:20:09;;;;;;;14.27;11.45;;;;;;;;;;5067628;28;20492;-72
2023/05/15 14:22:35;;;;;;;15.20;11.25;;;;;;;;;;5064212;28;20583;-72
2023/05/15 14:25:02;;;;;;;13.93;11.52;;;;;;;;;;5069956;28;20488;-72
2023/05/15 14:27:28;;;;;;;15.65;11.10;;;;;;;;;;5068711;28;20044;-72
2023/05/15 14:29:58;;;;;;;15.57;11.80;;;;;;;;;;5065028;28;20095;-72
2023/05/15 14:32:24;;;;;;;15.10;11.48;;;;;;;;;;5065014;28;20154;-72
2023/05/15 14:34:50;;;;;;;14.00;11.63;;;;;;;;;;5065646;28;20131;-72